Time;durP1;ratioP1;P1;durP2;ratioP2;P2;SDS_P1;SDS_P2;PMS_P1;PMS_P2;Temp;Humidity;BMP_temperature;BMP_pressure;BME280_temperature;BME280_humidity;BME280_pressure;Samples;Min_cycle;Max_cycle;Signal;HPM_P1;HPM_P2
2023/01/18 00:02:32;;;;;;;;;0.33;0.00;;;;;16.63;56.75;100129.47;146619;649;46018;-69
2023/01/18 00:05:38;;;;;;;;;;;;;;;;;;;;;
2023/01/18 00:08:45;;;;;;;;;0.00;0.00;;;;;16.65;56.30;100126.91;146620;569;46014;-69
2023/01/18 00:11:37;;;;;;;;;1.33;0.67;;;;;16.69;57.32;100121.72;146621;602;46020;-69
2023/01/18 00:14:41;;;;;;;;;1.00;1.00;;;;;16.70;56.77;100128.75;146615;575;47916;-68
2023/01/18 00:17:54;;;;;;;;;0.00;0.00;;;;;16.70;54.75;100126.13;146623;699;46020;-68
2023/01/18 00:20:53;;;;;;;;;1.33;0.33;;;;;16.71;54.04;100147.94;146620;630;46012;-69
2023/01/18 00:23:55;;;;;;;;;0.00;0.00;;;;;16.71;53.41;100121.78;146624;686;46010;-72
2023/01/18 00:26:54;;;;;;;;;1.00;0.00;;;;;16.77;54.64;100133.25;146619;593;46014;-68
2023/01/18 00:29:51;;;;;;;;;1.00;1.00;;;;;16.80;54.22;100146.41;146624;580;46011;-69
2023/01/18 00:33:00;;;;;;;;;1.00;0.33;;;;;16.82;54.23;100128.06;146619;569;46918;-68
2023/01/18 00:36:18;;;;;;;;;0.67;0.33;;;;;16.83;54.66;100135.09;146624;574;46010;-69
2023/01/18 00:39:17;;;;;;;;;2.33;0.00;;;;;16.84;53.55;100147.31;146620;595;46016;-71
2023/01/18 00:45:35;;;;;;;;;0.00;0.00;;;;;16.89;54.74;100127.34;146620;610;46014;-70
2023/01/18 00:48:33;;;;;;;;;0.00;0.00;;;;;16.89;56.38;100135.19;146618;670;46020;-68
2023/01/18 00:51:47;;;;;;;;;1.67;1.33;;;;;16.89;55.21;100140.44;146619;588;46013;-69
2023/01/18 00:54:55;;;;;;;;;2.00;0.00;;;;;16.87;56.13;100115.94;146622;641;46010;-69
2023/01/18 00:57:52;;;;;;;;;0.00;0.00;;;;;16.83;56.87;100122.88;146624;613;45017;-69
2023/01/18 01:00:56;;;;;;;;;0.00;0.00;;;;;16.83;56.10;100135.09;146625;604;46020;-70
2023/01/18 01:07:04;;;;;;;;;0.00;0.00;;;;;16.83;55.03;100122.88;146625;611;45021;-69
2023/01/18 01:10:07;;;;;;;;;2.00;1.00;;;;;16.83;55.42;100122.00;146618;572;46016;-70
2023/01/18 01:26:19;;;;;;;;;0.00;0.00;;;;;14.27;55.81;99683.59;146622;564;46012;-66
2023/01/18 01:29:25;;;;;;;;;1.00;0.00;;;;;16.82;56.32;100130.69;146618;587;46917;-67
2023/01/18 01:32:31;;;;;;;;;0.00;0.00;;;;;16.84;55.60;100116.78;146625;627;46012;-68
2023/01/18 01:35:31;;;;;;;;;1.00;0.00;;;;;16.86;55.10;100106.34;146615;585;46017;-68
2023/01/18 01:38:28;;;;;;;;;0.00;0.00;;;;;16.88;55.54;100122.06;146623;569;46010;-68
2023/01/18 01:41:37;;;;;;;;;0.67;0.00;;;;;16.88;54.19;100130.81;146621;621;46012;-69
2023/01/18 01:45:04;;;;;;;;;1.00;0.00;;;;;14.80;55.05;99759.41;146623;650;45021;-69
2023/01/18 01:48:25;;;;;;;;;0.00;0.00;;;;;16.92;54.80;100109.06;146619;628;46016;-67
2023/01/18 01:51:29;;;;;;;;;1.00;0.00;;;;;16.93;53.69;100108.19;146624;569;46010;-66
2023/01/18 01:55:12;;;;;;;;;0.00;0.00;;;;;14.46;54.79;99692.62;146618;586;46016;-71
2023/01/18 01:58:32;;;;;;;;;0.00;0.00;;;;;14.74;54.59;99749.72;146624;630;46021;-73
2023/01/18 02:01:42;;;;;;;;;;;;;;;;;;;;;
2023/01/18 02:04:54;;;;;;;;;0.00;0.00;;;;;16.95;54.44;100113.47;146623;564;46021;-70
2023/01/18 02:07:57;;;;;;;;;1.67;0.33;;;;;16.93;53.39;100107.31;146621;596;46012;-71
2023/01/18 02:10:53;;;;;;;;;0.00;0.00;;;;;16.95;53.84;100110.84;146623;599;46010;-70
2023/01/18 02:13:56;;;;;;;;;1.33;0.00;;;;;16.97;53.53;100115.22;146622;604;46012;-70
2023/01/18 02:17:40;;;;;;;;;;;;;;;;;;;;;
2023/01/18 02:21:25;;;;;;;;;1.00;0.00;;;;;16.98;54.12;100113.53;146618;602;46017;-69
2023/01/18 02:25:20;;;;;;;;;2.00;0.00;;;;;14.48;53.62;99677.88;146621;591;46020;-70
2023/01/18 02:28:46;;;;;;;;;2.00;0.00;;;;;14.52;53.77;99682.34;146619;566;46016;-70
2023/01/18 02:32:07;;;;;;;;;1.00;0.00;;;;;16.99;54.50;100092.56;146621;580;46020;-67
2023/01/18 02:35:40;;;;;;;;;0.00;0.00;;;;;16.99;54.41;100105.69;146620;600;46017;-68
2023/01/18 02:39:22;;;;;;;;;0.00;0.00;;;;;14.21;54.56;99632.19;146624;626;46012;-69
2023/01/18 02:46:39;;;;;;;;;;;;;;;;;;;;;
2023/01/18 02:49:57;;;;;;;;;0.00;0.00;;;;;16.94;54.27;100112.56;146617;585;47012;-66
2023/01/18 02:53:15;;;;;;;;;0.00;0.00;;;;;14.53;55.09;99684.09;146620;656;46020;-66
2023/01/18 02:56:17;;;;;;;;;1.33;0.00;;;;;16.98;53.82;100103.91;146620;571;46012;-66
2023/01/18 02:59:53;;;;;;;;;;;;;;;;;;;;;
2023/01/18 03:02:53;;;;;;;;;0.00;0.00;;;;;16.95;53.33;100087.28;146620;676;46016;-68
2023/01/18 03:06:07;;;;;;;;;0.00;0.00;;;;;14.66;53.98;99704.34;146624;576;46010;-67
2023/01/18 03:09:09;;;;;;;;;0.00;0.00;;;;;16.95;53.81;100087.28;146619;576;46016;-69
2023/01/18 03:12:44;;;;;;;;;0.33;0.00;;;;;14.52;53.70;99666.69;146623;643;46021;-72
2023/01/18 03:16:29;;;;;;;;;0.00;0.00;;;;;15.35;54.31;99822.16;146619;597;46016;-71
2023/01/18 03:20:08;;;;;;;;;0.00;0.00;;;;;14.49;53.36;99692.69;146624;565;46010;-71
2023/01/18 03:23:39;;;;;;;;;1.33;0.33;;;;;16.95;54.68;100079.44;146623;619;45016;-72
2023/01/18 03:27:04;;;;;;;;;;;;;;;;;;;;;
2023/01/18 03:36:37;;;;;;;;;0.00;0.00;;;;;16.93;55.36;100082.00;146618;569;47917;-70
2023/01/18 03:40:14;;;;;;;;;;;;;;;;;;;;;
2023/01/18 03:43:38;;;;;;;;;0.00;0.00;;;;;16.88;54.88;100091.53;146624;582;45017;-71
2023/01/18 03:46:49;;;;;;;;;;;;;;;;;;;;;
2023/01/18 03:50:01;;;;;;;;;0.00;0.00;;;;;14.41;54.13;99684.72;146620;634;46013;-70
2023/01/18 03:53:17;;;;;;;;;0.00;0.00;;;;;16.84;54.04;100110.66;146621;563;46022;-70
2023/01/18 03:56:53;;;;;;;;;1.00;0.00;;;;;13.61;53.72;99555.44;146620;648;46016;-71
2023/01/18 04:00:21;;;;;;;;;0.33;0.00;;;;;14.70;53.37;99737.50;146625;645;46010;-70
2023/01/18 04:03:34;;;;;;;;;0.00;0.00;;;;;16.83;53.18;100111.53;146620;578;46919;-71
2023/01/18 04:06:34;;;;;;;;;1.67;0.00;;;;;16.87;53.25;100121.19;146623;599;46010;-70
2023/01/18 04:09:34;;;;;;;;;0.00;0.00;;;;;16.88;53.51;100128.19;146622;571;46012;-71
2023/01/18 04:12:27;;;;;;;;;0.00;0.00;;;;;16.92;53.93;100134.38;146623;586;46024;-69
2023/01/18 04:15:30;;;;;;;;;0.67;0.00;;;;;16.92;52.91;100124.78;146623;576;46028;-70
2023/01/18 04:18:34;;;;;;;;;0.33;0.33;;;;;16.92;54.18;100118.66;146621;624;46021;-70
2023/01/18 04:21:49;;;;;;;;;0.00;0.00;;;;;16.92;54.99;100111.69;146621;593;46016;-71
2023/01/18 04:24:44;;;;;;;;;0.67;0.00;;;;;16.91;53.69;100143.06;146622;598;46020;-72
2023/01/18 04:27:42;;;;;;;;;0.00;0.00;;;;;16.85;52.33;100134.28;146620;599;46017;-74
2023/01/18 04:30:35;;;;;;;;;0.00;0.00;;;;;16.83;52.56;100142.97;146623;597;46012;-71
2023/01/18 04:33:50;;;;;;;;;0.00;0.00;;;;;14.36;53.02;99719.37;146620;666;46016;-69
2023/01/18 04:36:48;;;;;;;;;0.00;0.00;;;;;16.88;52.76;100166.59;146624;593;45020;-70
2023/01/18 04:39:43;;;;;;;;;0.00;0.00;;;;;16.91;52.14;100141.31;146621;599;46016;-72
2023/01/18 04:42:52;;;;;;;;;0.33;0.33;;;;;16.95;53.49;100147.53;146623;580;46021;-70
2023/01/18 04:45:58;;;;;;;;;0.67;0.00;;;;;14.37;51.63;99695.06;146621;569;46012;-73
2023/01/18 04:49:07;;;;;;;;;0.00;0.00;;;;;16.95;52.90;100164.09;146624;588;46010;-74
2023/01/18 04:52:18;;;;;;;;;;;;;;;;;;;;;
2023/01/18 04:55:16;;;;;;;;;0.00;0.00;;;;;16.95;52.31;100153.63;146620;592;46010;-71
2023/01/18 04:58:25;;;;;;;;;;;;;;;;;;;;;
2023/01/18 05:01:41;;;;;;;;;;;;;;;;;;;;;
2023/01/18 05:04:38;;;;;;;;;0.33;0.33;;;;;16.96;52.35;100159.75;146621;682;46016;-70
2023/01/18 05:07:32;;;;;;;;;0.67;0.00;;;;;16.95;52.82;100161.50;146622;646;46020;-71
2023/01/18 05:10:29;;;;;;;;;0.00;0.00;;;;;16.93;52.84;100163.19;146621;593;46012;-70
2023/01/18 05:13:38;;;;;;;;;0.00;0.00;;;;;16.94;53.75;100159.72;146623;575;46010;-69
2023/01/18 05:16:56;;;;;;;;;0.00;0.00;;;;;16.92;52.29;100161.44;146617;564;46016;-71
2023/01/18 05:19:50;;;;;;;;;0.00;0.00;;;;;16.94;53.12;100154.47;146624;599;46010;-72
2023/01/18 05:23:09;;;;;;;;;0.00;0.00;;;;;16.91;52.55;100169.25;146621;592;46014;-75
2023/01/18 05:26:18;;;;;;;;;0.00;0.00;;;;;16.94;52.84;100159.72;146624;711;46010;-70
2023/01/18 05:29:22;;;;;;;;;0.67;0.00;;;;;16.94;52.97;100158.84;146620;564;46012;-71
2023/01/18 05:32:38;;;;;;;;;0.00;0.00;;;;;16.90;52.84;100171.00;146626;579;46010;-74
2023/01/18 05:35:58;;;;;;;;;0.00;0.00;;;;;14.43;52.62;99736.91;146621;616;46012;-73
2023/01/18 05:39:20;;;;;;;;;0.00;0.00;;;;;16.93;53.19;100198.97;146622;571;45020;-70
2023/01/18 05:42:15;;;;;;;;;1.00;0.00;;;;;16.92;53.87;100194.59;146620;578;46016;-70
2023/01/18 05:45:19;;;;;;;;;0.00;0.00;;;;;16.91;53.65;100201.56;146624;698;46020;-71
2023/01/18 05:48:26;;;;;;;;;0.00;0.00;;;;;16.92;54.09;100181.50;146619;591;46017;-71
2023/01/18 05:51:32;;;;;;;;;0.00;0.00;;;;;16.90;53.94;100198.94;146624;596;46010;-70
2023/01/18 05:54:35;;;;;;;;;0.00;0.00;;;;;16.89;53.66;100184.97;146618;598;46016;-71
2023/01/18 05:57:53;;;;;;;;;1.00;0.00;;;;;14.39;54.09;99755.94;146622;625;46020;-71
2023/01/18 06:00:57;;;;;;;;;0.67;0.67;;;;;16.83;54.27;100192.72;146621;670;46012;-70
2023/01/18 06:04:04;;;;;;;;;1.00;0.00;;;;;16.84;54.62;100208.44;146624;604;46012;-70
2023/01/18 06:07:11;;;;;;;;;;;;;;;;;;;;;
2023/01/18 06:10:34;;;;;;;;;2.00;0.00;;;;;16.83;53.82;100190.97;146623;678;46013;-71
2023/01/18 06:13:55;;;;;;;;;0.00;0.00;;;;;14.44;54.46;99783.00;146621;587;46012;-72
2023/01/18 06:16:53;;;;;;;;;0.33;0.00;;;;;16.92;53.73;100215.56;146624;587;46012;-71
2023/01/18 06:20:17;;;;;;;;;0.00;0.00;;;;;16.92;54.38;100198.09;146620;604;46012;-69
2023/01/18 06:23:23;;;;;;;;;0.67;0.00;;;;;14.38;53.93;99772.44;146621;587;46010;-70
2023/01/18 06:26:30;;;;;;;;;3.33;1.00;;;;;16.95;54.43;100219.09;146619;585;46016;-70
2023/01/18 06:29:34;;;;;;;;;3.67;0.67;;;;;16.98;53.81;100232.25;146626;582;46010;-71
2023/01/18 06:32:29;;;;;;;;;0.33;0.33;;;;;17.01;53.69;100207.84;146621;580;46919;-70
2023/01/18 06:35:37;;;;;;;;;2.00;1.33;;;;;17.14;54.11;100227.28;146623;574;46020;-71
2023/01/18 06:38:33;;;;;;;;;0.33;0.00;;;;;17.24;52.98;100227.44;146620;585;46016;-73
2023/01/18 06:41:39;;;;;;;;;2.67;0.00;;;;;17.36;52.48;100237.25;146620;564;46020;-75
2023/01/18 06:44:39;;;;;;;;;2.33;0.67;;;;;17.51;51.72;100241.84;146620;564;46920;-72
2023/01/18 06:47:34;;;;;;;;;0.67;0.00;;;;;17.67;50.90;100258.69;146623;678;46021;-69
2023/01/18 06:50:46;;;;;;;;;1.33;0.67;;;;;17.90;50.79;100253.81;146620;577;46016;-72
2023/01/18 06:53:59;;;;;;;;;1.67;0.00;;;;;18.07;51.24;100239.19;146620;564;47020;-73
2023/01/18 06:56:51;;;;;;;;;2.00;1.00;;;;;18.16;50.68;100241.03;146617;567;46016;-74
2023/01/18 07:00:19;;;;;;;;;3.33;0.00;;;;;15.99;49.02;99845.91;146624;658;46010;-76
2023/01/18 07:03:20;;;;;;;;;1.67;0.00;;;;;18.54;49.47;100245.88;146623;564;46012;-74
2023/01/18 07:06:39;;;;;;;;;;;;;;;;;;;;;
2023/01/18 07:09:42;;;;;;;;;1.00;1.00;;;;;18.75;48.25;100255.75;146620;570;46016;-70
2023/01/18 07:12:50;;;;;;;;;2.67;0.00;;;;;18.89;49.66;100259.41;146624;582;46010;-72
2023/01/18 07:16:07;;;;;;;;;;;;;;;;;;;;;
2023/01/18 07:19:05;;;;;;;;;2.00;0.00;;;;;18.99;47.38;100277.00;146622;569;46021;-74
2023/01/18 07:22:06;;;;;;;;;0.00;0.00;;;;;19.03;48.13;100275.28;146622;630;46012;-75
2023/01/18 07:25:02;;;;;;;;;2.33;0.67;;;;;19.08;47.80;100278.84;146620;583;46020;-75
2023/01/18 07:28:01;;;;;;;;;6.00;2.00;;;;;19.17;48.84;100265.81;146623;639;46012;-73
2023/01/18 07:31:15;;;;;;;;;1.33;0.00;;;;;16.81;48.27;99839.19;146621;602;46020;-70
2023/01/18 07:34:18;;;;;;;;;1.00;0.00;;;;;16.73;47.08;99850.41;146619;593;46017;-74
2023/01/18 07:37:17;;;;;;;;;4.67;1.67;;;;;19.05;47.32;100281.44;146620;675;46914;-72
2023/01/18 07:40:24;;;;;;;;;4.67;2.33;;;;;18.91;48.31;100305.84;146621;596;46016;-72
2023/01/18 07:43:34;;;;;;;;;2.00;1.00;;;;;18.85;47.65;100287.38;146621;565;46020;-72
2023/01/18 07:46:41;;;;;;;;;;;;;;;;;;;;;
2023/01/18 07:49:45;;;;;;;;;3.00;1.67;;;;;18.89;47.24;100294.44;146623;569;46022;-72
2023/01/18 07:52:43;;;;;;;;;3.67;1.67;;;;;18.91;47.32;100300.59;146616;625;47012;-70
2023/01/18 07:55:43;;;;;;;;;4.33;1.00;;;;;18.90;48.07;100304.06;146624;606;46020;-72
2023/01/18 07:58:47;;;;;;;;;2.00;1.67;;;;;16.56;48.10;99899.94;146621;639;46012;-70
2023/01/18 08:01:39;;;;;;;;;4.00;0.00;;;;;19.01;47.14;100301.56;146625;617;46010;-71
2023/01/18 08:04:48;;;;;;;;;3.67;2.00;;;;;16.70;46.11;99915.81;146624;601;46014;-70
2023/01/18 08:07:49;;;;;;;;;4.00;1.67;;;;;19.05;45.23;100297.22;146623;621;46021;-71
2023/01/18 08:10:45;;;;;;;;;5.67;1.00;;;;;19.07;45.86;100303.38;146619;579;46017;-71
2023/01/18 08:13:56;;;;;;;;;9.33;4.33;;;;;19.13;45.10;100303.44;146623;634;46012;-69
2023/01/18 08:16:55;;;;;;;;;7.67;4.00;;;;;19.17;45.04;100312.22;146618;579;46017;-69
2023/01/18 08:19:54;;;;;;;;;9.67;3.00;;;;;19.22;45.73;100324.56;146623;561;46010;-70
2023/01/18 08:22:50;;;;;;;;;7.67;3.00;;;;;19.24;45.61;100325.44;146619;611;46016;-70
2023/01/18 08:26:04;;;;;;;;;;;;;;;;;;;;;
2023/01/18 08:29:09;;;;;;;;;4.00;1.33;;;;;19.31;45.15;100332.50;146619;597;46012;-70
2023/01/18 08:32:02;;;;;;;;;7.67;4.33;;;;;19.34;45.19;100345.66;146621;649;46020;-70
2023/01/18 08:35:11;;;;;;;;;6.00;2.67;;;;;19.38;44.05;100333.47;146619;573;46918;-70
2023/01/18 08:38:29;;;;;;;;;13.33;2.00;;;;;19.39;43.86;100312.44;146620;596;46021;-71
2023/01/18 08:41:38;;;;;;;;;;;;;;;;;;;;;
2023/01/18 08:44:36;;;;;;;;;2.67;0.00;;;;;19.43;44.94;100315.09;146622;652;46020;-71
2023/01/18 08:47:42;;;;;;;;;;;;;;;;;;;;;
2023/01/18 08:50:54;;;;;;;;;6.33;4.00;;;;;19.53;43.75;100352.00;146621;585;46020;-71
2023/01/18 08:54:06;;;;;;;;;;;;;;;;;;;;;
2023/01/18 08:57:01;;;;;;;;;8.67;6.00;;;;;19.56;44.92;100348.50;146623;620;46010;-71
2023/01/18 09:00:03;;;;;;;;;8.00;3.33;;;;;19.61;44.77;100347.69;146621;570;46012;-72
2023/01/18 09:03:00;;;;;;;;;12.00;2.67;;;;;19.64;44.43;100346.88;146622;569;46012;-72
2023/01/18 09:06:32;;;;;;;;;;;;;;;;;;;;;
2023/01/18 09:09:49;;;;;;;;;5.67;4.00;;;;;17.41;45.39;99947.28;146622;573;46021;-72
2023/01/18 09:12:56;;;;;;;;;5.67;3.33;;;;;17.53;45.69;99959.62;146619;626;46016;-70
2023/01/18 09:16:11;;;;;;;;;9.67;4.33;;;;;17.53;43.12;99967.50;146622;625;46010;-70
2023/01/18 09:19:06;;;;;;;;;7.67;3.00;;;;;19.88;44.03;100342.66;146622;582;46012;-69
2023/01/18 09:21:58;;;;;;;;;7.33;3.00;;;;;19.92;42.71;100347.06;146625;593;46010;-71
2023/01/18 09:25:20;;;;;;;;;;;;;;;;;;;;;
2023/01/18 09:28:26;;;;;;;;;8.00;4.33;;;;;19.97;43.83;100335.72;146624;628;46010;-73
2023/01/18 09:31:23;;;;;;;;;11.33;4.33;;;;;20.00;43.35;100340.09;146619;631;46014;-73
2023/01/18 09:34:51;;;;;;;;;12.00;4.67;;;;;20.09;43.88;100327.00;146625;649;45020;-73
2023/01/18 09:37:56;;;;;;;;;5.33;3.33;;;;;20.16;44.44;100328.81;146617;621;47015;-74
2023/01/18 09:41:10;;;;;;;;;7.67;3.67;;;;;20.21;43.01;100320.94;146621;589;46020;-75
2023/01/18 09:44:44;;;;;;;;;7.67;3.00;;;;;17.63;45.66;99885.50;146622;578;46012;-73
2023/01/18 09:47:53;;;;;;;;;13.00;5.00;;;;;20.24;43.58;100342.00;146623;564;46020;-75
2023/01/18 09:50:48;;;;;;;;;9.67;4.00;;;;;20.31;42.85;100338.53;146616;570;46916;-73
2023/01/18 09:54:23;;;;;;;;;13.50;5.50;;;;;20.33;45.18;100313.09;146620;599;46021;-73
2023/01/18 09:58:00;;;;;;;;;8.67;3.00;;;;;20.36;43.36;100315.75;146618;638;46915;-72
2023/01/18 10:01:46;;;;;;;;;7.67;3.33;;;;;18.11;43.90;99912.16;146621;653;46020;-75
2023/01/18 10:05:02;;;;;;;;;10.33;5.67;;;;;20.43;43.40;100309.62;146618;582;46016;-71
2023/01/18 10:08:26;;;;;;;;;9.67;5.00;;;;;18.15;42.91;99917.41;146623;572;46011;-73
2023/01/18 10:11:47;;;;;;;;;8.67;4.00;;;;;20.44;43.48;100298.25;146622;587;47012;-72
2023/01/18 10:14:48;;;;;;;;;13.33;4.33;;;;;20.52;43.15;100314.09;146624;608;45021;-73
2023/01/18 10:17:54;;;;;;;;;9.67;5.67;;;;;20.46;42.44;100322.81;146619;633;46916;-72
2023/01/18 10:21:18;;;;;;;;;5.33;1.67;;;;;20.49;42.71;100303.50;146624;570;45020;-73
2023/01/18 10:25:01;;;;;;;;;9.67;3.00;;;;;20.49;42.59;100304.38;146620;611;46012;-73
2023/01/18 10:29:11;;;;;;;;;9.67;5.00;;;;;18.32;42.26;99920.19;146624;586;46012;-71
2023/01/18 10:32:46;;;;;;;;;9.67;6.00;;;;;20.63;43.78;100288.69;146618;598;46016;-73
2023/01/18 10:35:46;;;;;;;;;8.33;4.33;;;;;20.75;41.86;100322.09;146624;578;46012;-74
2023/01/18 10:38:49;;;;;;;;;10.67;4.67;;;;;20.77;40.77;100288.72;146619;637;46016;-72
2023/01/18 10:41:56;;;;;;;;;9.67;6.33;;;;;20.82;40.79;100309.81;146621;580;47010;-74
2023/01/18 10:44:55;;;;;;;;;9.67;6.00;;;;;20.88;42.63;100301.94;146621;590;47013;-73
2023/01/18 10:48:16;;;;;;;;;10.33;8.00;;;;;20.95;43.13;100290.53;146623;659;47020;-73
2023/01/18 10:51:48;;;;;;;;;10.67;5.67;;;;;20.91;42.35;100297.53;146620;595;46016;-74
2023/01/18 10:54:54;;;;;;;;;8.33;4.00;;;;;20.87;42.91;100279.06;146622;591;46010;-72
2023/01/18 10:57:57;;;;;;;;;6.67;5.33;;;;;20.85;42.16;100287.00;146619;723;46016;-73
2023/01/18 11:01:14;;;;;;;;;;;;;;;;;;;;;
2023/01/18 11:04:30;;;;;;;;;8.67;7.00;;;;;20.88;43.16;100280.84;146618;586;46016;-73
2023/01/18 11:07:57;;;;;;;;;4.33;4.00;;;;;18.61;39.73;99904.59;146623;591;46021;-73
2023/01/18 11:11:16;;;;;;;;;9.50;3.00;;;;;20.85;42.12;100294.91;146619;600;46916;-73
2023/01/18 11:14:38;;;;;;;;;7.67;5.67;;;;;20.83;42.41;100274.69;146611;599;46011;-73
2023/01/18 11:17:41;;;;;;;;;14.00;9.00;;;;;20.81;40.80;100287.87;146606;624;46016;-77
2023/01/18 11:20:43;;;;;;;;;11.00;6.33;;;;;20.86;41.60;100282.59;146609;570;46020;-73
2023/01/18 11:23:57;;;;;;;;;11.00;5.00;;;;;19.03;41.22;99967.88;146606;590;46016;-72
2023/01/18 11:27:27;;;;;;;;;13.67;8.67;;;;;20.95;43.01;100275.56;146609;578;46012;-72
2023/01/18 11:30:31;;;;;;;;;12.00;7.67;;;;;20.98;40.41;100269.44;146605;628;46016;-73
2023/01/18 11:33:30;;;;;;;;;9.33;6.33;;;;;21.02;41.47;100276.47;146608;612;46020;-72
2023/01/18 11:36:49;;;;;;;;;9.00;5.00;;;;;19.90;41.78;100096.22;146608;629;46013;-72
2023/01/18 11:39:43;;;;;;;;;10.33;4.67;;;;;21.13;40.75;100273.84;146609;577;46012;-71
2023/01/18 11:42:47;;;;;;;;;8.67;6.67;;;;;21.17;41.72;100273.84;146609;610;46016;-72
2023/01/18 11:46:29;;;;;;;;;11.00;7.67;;;;;21.25;43.36;100260.69;146610;590;46010;-72
2023/01/18 11:50:12;;;;;;;;;8.00;5.00;;;;;18.82;40.98;99843.47;146606;656;46016;-74
2023/01/18 11:53:46;;;;;;;;;9.67;5.33;;;;;21.26;43.12;100262.44;146609;599;46020;-75
2023/01/18 11:57:05;;;;;;;;;;;;;;;;;;;;;
2023/01/18 12:00:14;;;;;;;;;8.33;3.67;;;;;21.34;43.48;100254.50;146608;596;46023;-76
2023/01/18 12:04:06;;;;;;;;;16.67;7.00;;;;;19.19;40.08;99871.56;146609;608;46014;-72
2023/01/18 12:07:40;;;;;;;;;8.00;6.00;;;;;19.14;40.74;99848.81;146610;574;46010;-73
2023/01/18 12:10:49;;;;;;;;;11.33;5.00;;;;;21.48;41.04;100241.38;146608;581;46016;-74
2023/01/18 12:14:24;;;;;;;;;9.33;5.00;;;;;19.27;39.96;99867.22;146612;589;46010;-74
2023/01/18 12:18:05;;;;;;;;;13.00;6.67;;;;;21.36;40.52;100244.88;146608;583;46012;-72
2023/01/18 12:21:37;;;;;;;;;8.00;5.67;;;;;21.35;39.29;100251.91;146610;657;46021;-71
2023/01/18 12:25:36;;;;;;;;;7.33;5.00;;;;;19.09;42.98;99847.03;146608;622;46012;-73
2023/01/18 12:29:02;;;;;;;;;13.00;5.33;;;;;20.06;39.19;100046.28;146611;583;46021;-72
2023/01/18 12:32:35;;;;;;;;;6.33;4.00;;;;;19.29;41.09;99871.63;146609;563;46012;-73
2023/01/18 12:36:44;;;;;;;;;11.67;4.67;;;;;18.84;41.31;99765.53;146606;685;47021;-73
2023/01/18 12:40:37;;;;;;;;;10.00;5.00;;;;;19.31;41.14;99832.19;146610;679;46012;-73
2023/01/18 12:44:38;;;;;;;;;7.67;3.00;;;;;21.94;40.14;100250.06;146611;579;46011;-74
2023/01/18 12:48:15;;;;;;;;;8.00;5.00;;;;;22.28;41.48;100239.44;146610;583;46016;-72
2023/01/18 12:51:30;;;;;;;;;9.33;5.33;;;;;20.45;40.99;99890.94;146611;613;46010;-74
2023/01/18 12:54:55;;;;;;;;;13.00;7.00;;;;;20.65;38.73;99880.38;146608;715;46012;-74
2023/01/18 12:58:13;;;;;;;;;5.00;4.67;;;;;22.92;40.40;100256.69;146606;614;46021;-72
2023/01/18 13:01:20;;;;;;;;;8.00;5.00;;;;;23.13;39.93;100235.41;146608;578;45025;-73
2023/01/18 13:04:40;;;;;;;;;9.33;5.67;;;;;21.26;41.25;99898.56;146609;640;46020;-72
2023/01/18 13:08:07;;;;;;;;;;;;;;;;;;;;;
2023/01/18 13:11:41;;;;;;;;;12.00;5.33;;;;;21.13;38.49;99918.84;146609;659;46020;-73
2023/01/18 13:15:30;;;;;;;;;10.00;5.00;;;;;20.84;40.87;99891.72;146608;700;46917;-75
2023/01/18 13:19:10;;;;;;;;;8.00;4.33;;;;;19.82;42.21;99768.25;146606;618;46020;-75
2023/01/18 13:22:46;;;;;;;;;9.00;5.67;;;;;22.42;41.28;100261.37;146609;569;46012;-76
2023/01/18 13:26:00;;;;;;;;;7.33;5.00;;;;;22.29;41.62;100246.47;146611;596;46010;-76
2023/01/18 13:29:36;;;;;;;;;8.67;4.33;;;;;22.00;41.25;100268.53;146605;564;47014;-75
2023/01/18 13:32:44;;;;;;;;;8.67;6.00;;;;;21.76;43.10;100250.13;146607;633;46020;-75
2023/01/18 13:35:42;;;;;;;;;6.00;5.00;;;;;21.39;43.18;100248.38;146604;657;46916;-73
2023/01/18 13:39:14;;;;;;;;;8.33;5.33;;;;;21.15;44.10;100249.25;146611;626;46010;-74
2023/01/18 13:42:36;;;;;;;;;5.67;3.33;;;;;20.97;42.94;100238.69;146606;668;46917;-72
2023/01/18 13:45:58;;;;;;;;;13.00;5.33;;;;;20.90;43.20;100251.00;146608;633;46020;-73
2023/01/18 13:49:48;;;;;;;;;6.33;5.00;;;;;20.79;43.88;100242.19;146607;613;46018;-75
2023/01/18 13:52:52;;;;;;;;;13.33;4.67;;;;;20.63;43.89;100249.16;146610;605;46010;-73
2023/01/18 13:56:22;;;;;;;;;11.33;8.00;;;;;20.52;43.95;100257.03;146607;678;46017;-72
2023/01/18 13:59:47;;;;;;;;;14.33;8.00;;;;;18.24;43.34;99864.13;146610;577;46012;-71
2023/01/18 14:02:42;;;;;;;;;8.00;3.33;;;;;20.47;43.41;100252.59;146606;573;46918;-74
2023/01/18 14:06:03;;;;;;;;;15.00;7.33;;;;;20.39;44.05;100265.72;146611;583;46010;-73
2023/01/18 14:09:25;;;;;;;;;12.00;6.00;;;;;20.38;44.53;100260.47;146607;578;46012;-73
2023/01/18 14:12:57;;;;;;;;;12.00;8.00;;;;;20.43;45.13;100263.97;146608;619;46021;-74
2023/01/18 14:16:11;;;;;;;;;6.67;4.33;;;;;20.40;45.72;100262.22;146606;609;46014;-66
2023/01/18 14:19:31;;;;;;;;;9.67;5.33;;;;;20.32;44.19;100242.00;146612;609;46011;-71
2023/01/18 14:23:06;;;;;;;;;10.33;4.67;;;;;20.26;44.38;100272.69;146608;599;46016;-67
2023/01/18 14:26:26;;;;;;;;;7.33;5.67;;;;;20.32;42.79;100249.91;146612;573;46010;-66
2023/01/18 14:29:51;;;;;;;;;8.67;5.00;;;;;18.18;42.69;99851.84;146612;585;46012;-67
2023/01/18 14:33:39;;;;;;;;;;;;;;;;;;;;;
2023/01/18 14:36:42;;;;;;;;;11.75;6.00;;;;;20.52;41.82;100261.41;146610;638;46012;-72
2023/01/18 14:39:39;;;;;;;;;11.00;5.00;;;;;20.40;38.64;100251.69;146610;598;46020;-73
2023/01/18 14:42:47;;;;;;;;;14.00;4.33;;;;;20.42;40.60;100251.69;146608;584;46012;-73
2023/01/18 14:45:59;;;;;;;;;13.33;7.00;;;;;20.41;40.65;100255.22;146611;571;46020;-73
2023/01/18 14:49:23;;;;;;;;;13.67;5.67;;;;;20.34;41.64;100256.91;146607;605;46012;-72
2023/01/18 14:52:33;;;;;;;;;13.00;7.33;;;;;20.24;41.34;100249.88;146605;637;47010;-73
2023/01/18 14:55:43;;;;;;;;;8.67;3.67;;;;;20.18;41.97;100252.47;146609;584;46013;-72
2023/01/18 14:58:47;;;;;;;;;12.00;6.00;;;;;20.13;41.57;100244.56;146607;575;46020;-72
2023/01/18 15:02:08;;;;;;;;;13.00;4.00;;;;;20.07;41.73;100253.31;146610;635;46012;-75
2023/01/18 15:05:42;;;;;;;;;7.33;3.33;;;;;17.63;43.44;99861.00;146611;719;46010;-73
2023/01/18 15:09:03;;;;;;;;;8.00;3.33;;;;;19.81;44.53;100258.44;146609;614;46016;-73
2023/01/18 15:12:13;;;;;;;;;12.67;6.00;;;;;19.76;44.88;100264.53;146611;624;46010;-73
2023/01/18 15:15:45;;;;;;;;;5.00;3.00;;;;;17.35;44.50;99881.69;146607;587;46016;-74
2023/01/18 15:19:01;;;;;;;;;;;;;;;;;;;;;
2023/01/18 15:22:07;;;;;;;;;10.00;5.33;;;;;19.47;46.06;100259.91;146608;563;46016;-72
2023/01/18 15:25:10;;;;;;;;;7.00;5.00;;;;;19.41;49.38;100280.00;146607;599;46020;-72
2023/01/18 15:28:16;;;;;;;;;6.33;4.00;;;;;19.21;48.47;100266.69;146609;634;46012;-70
2023/01/18 15:31:21;;;;;;;;;8.67;4.00;;;;;19.10;47.53;100292.91;146606;620;47012;-72
2023/01/18 15:35:00;;;;;;;;;7.67;3.00;;;;;19.06;49.17;100281.44;146607;570;46017;-71
2023/01/18 15:37:58;;;;;;;;;10.00;5.67;;;;;18.99;50.46;100290.16;146609;602;46020;-72
2023/01/18 15:41:31;;;;;;;;;;;;;;;;;;;;;
2023/01/18 15:44:51;;;;;;;;;9.67;7.00;;;;;18.92;48.76;100276.06;146608;672;46020;-73
2023/01/18 15:48:31;;;;;;;;;9.00;5.00;;;;;16.48;51.21;99870.16;146606;592;46017;-74
2023/01/18 15:54:56;;;;;;;;;10.67;6.33;;;;;18.61;51.75;100308.09;146606;648;46017;-73
2023/01/18 15:58:16;;;;;;;;;10.00;5.50;;;;;17.40;53.61;100081.81;146609;569;46020;-73
2023/01/18 16:01:35;;;;;;;;;6.33;3.33;;;;;16.53;54.31;99971.41;146607;600;47012;-73
2023/01/18 16:04:44;;;;;;;;;6.33;3.33;;;;;16.17;53.76;99915.06;146612;641;46012;-73
2023/01/18 16:07:43;;;;;;;;;7.00;3.33;;;;;18.38;56.66;100311.31;146607;569;46012;-75
2023/01/18 16:10:36;;;;;;;;;6.67;3.33;;;;;18.31;55.60;100317.31;146610;711;46021;-71
2023/01/18 16:14:00;;;;;;;;;15.75;12.25;;;;;16.65;55.56;100038.78;146606;648;46916;-73
2023/01/18 16:17:23;;;;;;;;;13.00;10.75;;;;;18.19;54.83;100317.16;146608;564;46010;-73
2023/01/18 16:20:36;;;;;;;;;9.50;8.00;;;;;16.21;55.04;99985.75;146606;644;46014;-74